Time;durP1;ratioP1;P1;durP2;ratioP2;P2;SDS_P1;SDS_P2;PMS_P1;PMS_P2;Temp;Humidity;BMP_temperature;BMP_pressure;BME280_temperature;BME280_humidity;BME280_pressure;Samples;Min_cycle;Max_cycle;Signal;HPM_P1;HPM_P2
2023/07/02 00:00:20;;;;;;;1.77;1.20;;;;;;;;;;5079139;28;20635;-63
2023/07/02 00:02:47;;;;;;;2.75;1.30;;;;;;;;;;5079210;28;20226;-64
2023/07/02 00:05:17;;;;;;;1.77;1.30;;;;;;;;;;5079693;28;20204;-65
2023/07/02 00:07:46;;;;;;;1.60;1.30;;;;;;;;;;5079969;28;20232;-64
2023/07/02 00:10:13;;;;;;;1.10;1.10;;;;;;;;;;5079832;28;20204;-63
2023/07/02 00:12:41;;;;;;;1.20;1.10;;;;;;;;;;5080254;28;20211;-65
2023/07/02 00:15:09;;;;;;;1.40;1.30;;;;;;;;;;5079513;28;20203;-64
2023/07/02 00:17:39;;;;;;;1.58;1.33;;;;;;;;;;5077708;28;20204;-65
2023/07/02 00:20:13;;;;;;;1.45;1.30;;;;;;;;;;5079713;28;20235;-65
2023/07/02 00:22:44;;;;;;;1.30;1.20;;;;;;;;;;5079834;28;20204;-65
2023/07/02 00:25:14;;;;;;;1.20;1.10;;;;;;;;;;5079671;28;20321;-66
2023/07/02 00:27:42;;;;;;;1.50;1.40;;;;;;;;;;5079176;28;20235;-65
2023/07/02 00:30:10;;;;;;;1.30;1.17;;;;;;;;;;5079110;28;20208;-65
2023/07/02 00:32:38;;;;;;;1.30;1.20;;;;;;;;;;5079088;28;20204;-65
2023/07/02 00:35:06;;;;;;;1.15;1.05;;;;;;;;;;5079246;28;20205;-65
2023/07/02 00:37:33;;;;;;;1.40;1.23;;;;;;;;;;5075761;28;20205;-65
2023/07/02 00:40:02;;;;;;;1.23;1.13;;;;;;;;;;5055418;28;20205;-64
2023/07/02 00:42:31;;;;;;;1.42;1.20;;;;;;;;;;5058883;28;20201;-64
2023/07/02 00:45:02;;;;;;;1.40;1.30;;;;;;;;;;5058758;28;20216;-65
2023/07/02 00:47:30;;;;;;;1.65;1.20;;;;;;;;;;5059306;28;20260;-65
2023/07/02 00:49:57;;;;;;;1.27;1.10;;;;;;;;;;5058978;28;20588;-65
2023/07/02 00:52:25;;;;;;;1.30;1.20;;;;;;;;;;5059174;28;20204;-64
2023/07/02 00:54:53;;;;;;;1.17;1.05;;;;;;;;;;5058701;28;20205;-65
2023/07/02 00:57:21;;;;;;;1.40;1.30;;;;;;;;;;5058843;28;20223;-65
2023/07/02 00:59:52;;;;;;;1.42;1.13;;;;;;;;;;5059198;28;20201;-64
2023/07/02 01:02:20;;;;;;;1.25;1.15;;;;;;;;;;5058635;28;20477;-65
2023/07/02 01:04:57;;;;;;;1.42;1.33;;;;;;;;;;5058744;28;20228;-65
2023/07/02 01:07:24;;;;;;;2.15;1.20;;;;;;;;;;5058110;28;20232;-65
2023/07/02 01:09:53;;;;;;;1.00;1.00;;;;;;;;;;5058694;28;20543;-65
2023/07/02 01:12:22;;;;;;;1.52;1.10;;;;;;;;;;5058655;28;20223;-64
2023/07/02 01:14:53;;;;;;;1.45;1.30;;;;;;;;;;5058511;28;20266;-65
2023/07/02 01:17:21;;;;;;;2.33;1.30;;;;;;;;;;5057701;28;20718;-63
2023/07/02 01:19:52;;;;;;;1.42;1.33;;;;;;;;;;5058514;28;20205;-64
2023/07/02 01:22:20;;;;;;;1.30;1.20;;;;;;;;;;5058478;28;20216;-64
2023/07/02 01:24:48;;;;;;;1.63;1.20;;;;;;;;;;5058513;28;20544;-63
2023/07/02 01:27:16;;;;;;;1.30;1.20;;;;;;;;;;5058038;28;20224;-64
2023/07/02 01:29:46;;;;;;;1.60;1.50;;;;;;;;;;5058229;28;20588;-65
2023/07/02 01:32:14;;;;;;;1.30;1.20;;;;;;;;;;5058376;28;20211;-65
2023/07/02 01:34:43;;;;;;;1.30;1.13;;;;;;;;;;5058196;28;20216;-65
2023/07/02 01:37:12;;;;;;;2.40;1.17;;;;;;;;;;5058445;28;20599;-65
2023/07/02 01:39:40;;;;;;;1.20;1.00;;;;;;;;;;5058051;28;20237;-65
2023/07/02 01:42:11;;;;;;;1.27;1.17;;;;;;;;;;5058118;28;20596;-65
2023/07/02 01:44:39;;;;;;;0.90;0.90;;;;;;;;;;5057848;28;20205;-65
2023/07/02 01:47:07;;;;;;;1.13;1.00;;;;;;;;;;5057900;28;20221;-65
2023/07/02 01:49:36;;;;;;;1.17;1.08;;;;;;;;;;5057731;28;20216;-65
2023/07/02 01:52:03;;;;;;;0.98;0.90;;;;;;;;;;5058262;28;20205;-65
2023/07/02 01:54:33;;;;;;;1.48;1.13;;;;;;;;;;5057727;28;20216;-65
2023/07/02 01:57:00;;;;;;;1.75;1.27;;;;;;;;;;5057930;28;20577;-65
2023/07/02 01:59:28;;;;;;;1.25;1.15;;;;;;;;;;5057917;28;20241;-65
2023/07/02 02:01:56;;;;;;;1.30;1.20;;;;;;;;;;5057917;28;20212;-65
2023/07/02 02:04:23;;;;;;;1.13;1.13;;;;;;;;;;5057907;28;20212;-65
2023/07/02 02:06:52;;;;;;;1.60;1.50;;;;;;;;;;5057550;28;20332;-65
2023/07/02 02:09:19;;;;;;;1.60;1.50;;;;;;;;;;5057599;28;20259;-65
2023/07/02 02:11:49;;;;;;;2.15;1.80;;;;;;;;;;5057585;28;20205;-65
2023/07/02 02:14:17;;;;;;;3.08;1.60;;;;;;;;;;5057710;28;20205;-65
2023/07/02 02:16:46;;;;;;;1.40;1.30;;;;;;;;;;5057456;28;20200;-65
2023/07/02 02:19:14;;;;;;;1.60;1.50;;;;;;;;;;5057839;28;20239;-65
2023/07/02 02:21:42;;;;;;;1.80;1.70;;;;;;;;;;5057619;28;20213;-65
2023/07/02 02:24:10;;;;;;;2.05;1.90;;;;;;;;;;5057532;28;20255;-65
2023/07/02 02:26:38;;;;;;;2.10;1.90;;;;;;;;;;5057297;28;20235;-65
2023/07/02 02:29:07;;;;;;;2.08;1.88;;;;;;;;;;5057437;28;20361;-65
2023/07/02 02:31:35;;;;;;;1.75;1.65;;;;;;;;;;5057284;28;20205;-65
2023/07/02 02:34:03;;;;;;;2.13;1.63;;;;;;;;;;5056976;28;20211;-65
2023/07/02 02:36:32;;;;;;;1.77;1.67;;;;;;;;;;5057085;28;20526;-65
2023/07/02 02:39:00;;;;;;;2.03;1.83;;;;;;;;;;5056451;28;20632;-65
2023/07/02 02:41:28;;;;;;;2.30;2.13;;;;;;;;;;5056971;28;20251;-65
2023/07/02 02:43:56;;;;;;;1.80;1.70;;;;;;;;;;5057031;28;20244;-65
2023/07/02 02:46:25;;;;;;;2.17;1.95;;;;;;;;;;5057325;28;20251;-65
2023/07/02 02:48:53;;;;;;;2.03;1.90;;;;;;;;;;5057089;28;20270;-65
2023/07/02 02:51:21;;;;;;;2.05;1.90;;;;;;;;;;5056914;28;20588;-65
2023/07/02 02:53:49;;;;;;;2.15;1.95;;;;;;;;;;5057239;28;20241;-65
2023/07/02 02:56:17;;;;;;;3.13;2.17;;;;;;;;;;5056906;28;20204;-65
2023/07/02 02:58:46;;;;;;;1.77;1.67;;;;;;;;;;5057174;28;20205;-65
2023/07/02 03:01:14;;;;;;;2.00;1.90;;;;;;;;;;5056957;28;20255;-65
2023/07/02 03:03:45;;;;;;;1.98;1.88;;;;;;;;;;5056719;28;20216;-65
2023/07/02 03:06:14;;;;;;;2.45;1.90;;;;;;;;;;5056618;28;20592;-65
2023/07/02 03:08:42;;;;;;;2.10;2.00;;;;;;;;;;5057119;28;20688;-65
2023/07/02 03:11:10;;;;;;;2.42;2.10;;;;;;;;;;5056968;28;20215;-65
2023/07/02 03:13:38;;;;;;;2.30;2.10;;;;;;;;;;5051817;28;20267;-65
2023/07/02 03:16:06;;;;;;;2.03;1.92;;;;;;;;;;5053256;28;20197;-65
2023/07/02 03:18:34;;;;;;;2.30;2.10;;;;;;;;;;5056545;28;20282;-65
2023/07/02 03:21:05;;;;;;;2.25;2.10;;;;;;;;;;5056676;28;20209;-65
2023/07/02 03:23:33;;;;;;;2.10;2.00;;;;;;;;;;5056794;28;20213;-65
2023/07/02 03:26:00;;;;;;;2.38;2.20;;;;;;;;;;5056985;28;20271;-65
2023/07/02 03:28:28;;;;;;;3.08;2.30;;;;;;;;;;5056540;28;20229;-65
2023/07/02 03:30:56;;;;;;;2.30;2.10;;;;;;;;;;5056431;28;20205;-65
2023/07/02 03:33:24;;;;;;;2.20;2.10;;;;;;;;;;5056860;28;20219;-65
2023/07/02 03:35:52;;;;;;;4.72;2.38;;;;;;;;;;5056830;28;20205;-65
2023/07/02 03:38:21;;;;;;;2.50;2.30;;;;;;;;;;5056563;28;20306;-66
2023/07/02 03:40:49;;;;;;;2.25;2.05;;;;;;;;;;5056422;28;20499;-65
2023/07/02 03:43:17;;;;;;;2.40;2.20;;;;;;;;;;5056678;28;20263;-65
2023/07/02 03:45:44;;;;;;;2.75;2.28;;;;;;;;;;5056465;28;20212;-65
2023/07/02 03:48:12;;;;;;;2.42;2.20;;;;;;;;;;5056425;28;20832;-65
2023/07/02 03:50:40;;;;;;;2.53;2.40;;;;;;;;;;5057271;28;20248;-65
2023/07/02 03:53:07;;;;;;;2.33;2.22;;;;;;;;;;5060215;28;20570;-65
2023/07/02 03:55:36;;;;;;;2.40;2.28;;;;;;;;;;5060105;28;20244;-65
2023/07/02 03:58:03;;;;;;;3.45;2.50;;;;;;;;;;5059724;28;20236;-65
2023/07/02 04:00:31;;;;;;;2.72;2.22;;;;;;;;;;5059671;28;20304;-65
2023/07/02 04:02:59;;;;;;;3.00;2.10;;;;;;;;;;5060078;28;20219;-65
2023/07/02 04:05:26;;;;;;;2.42;2.33;;;;;;;;;;5059851;28;20240;-65
2023/07/02 04:07:53;;;;;;;2.97;2.20;;;;;;;;;;5059855;28;20508;-65
2023/07/02 04:10:21;;;;;;;2.95;2.65;;;;;;;;;;5060096;28;20227;-65
2023/07/02 04:12:50;;;;;;;2.30;2.20;;;;;;;;;;5059906;28;20240;-65
2023/07/02 04:15:17;;;;;;;2.50;2.30;;;;;;;;;;5059745;28;20481;-65
2023/07/02 04:17:44;;;;;;;2.45;2.30;;;;;;;;;;5059882;28;20680;-65
2023/07/02 04:20:13;;;;;;;2.20;2.10;;;;;;;;;;5060008;28;20205;-65
2023/07/02 04:22:40;;;;;;;2.70;2.50;;;;;;;;;;5059865;28;20278;-65
2023/07/02 04:25:08;;;;;;;2.38;2.13;;;;;;;;;;5060075;28;20231;-65
2023/07/02 04:27:35;;;;;;;2.50;2.30;;;;;;;;;;5059399;28;20240;-65
2023/07/02 04:30:05;;;;;;;2.60;2.38;;;;;;;;;;5059209;28;20647;-65
2023/07/02 04:32:33;;;;;;;2.67;2.30;;;;;;;;;;5059638;28;20224;-65
2023/07/02 04:35:00;;;;;;;2.50;2.30;;;;;;;;;;5059735;28;20211;-65
2023/07/02 04:37:28;;;;;;;2.80;2.60;;;;;;;;;;5059357;28;20299;-65
2023/07/02 04:39:55;;;;;;;2.20;2.10;;;;;;;;;;5059555;28;20227;-65
2023/07/02 04:42:27;;;;;;;2.40;2.20;;;;;;;;;;5059055;28;20215;-65
2023/07/02 04:44:54;;;;;;;3.28;2.67;;;;;;;;;;5059183;28;20213;-65
2023/07/02 04:47:24;;;;;;;2.70;2.50;;;;;;;;;;5059452;28;20225;-65
2023/07/02 04:49:51;;;;;;;2.40;2.30;;;;;;;;;;5059099;28;20205;-65
2023/07/02 04:52:18;;;;;;;2.40;2.17;;;;;;;;;;5059220;28;20215;-65
2023/07/02 04:54:46;;;;;;;2.72;2.53;;;;;;;;;;5058956;28;20684;-65
2023/07/02 04:57:14;;;;;;;2.60;2.40;;;;;;;;;;5058989;28;20220;-65
2023/07/02 04:59:43;;;;;;;2.50;2.30;;;;;;;;;;5058761;28;20251;-66
2023/07/02 05:02:10;;;;;;;3.30;2.63;;;;;;;;;;5058661;28;20247;-65
2023/07/02 05:04:39;;;;;;;2.80;2.60;;;;;;;;;;5058775;28;20308;-65
2023/07/02 05:07:06;;;;;;;2.28;2.17;;;;;;;;;;5058949;28;20235;-65
2023/07/02 05:09:34;;;;;;;2.67;2.47;;;;;;;;;;5058472;28;20307;-64
2023/07/02 05:12:02;;;;;;;2.53;2.33;;;;;;;;;;5058707;28;20216;-65
2023/07/02 05:14:29;;;;;;;2.42;2.33;;;;;;;;;;5058220;28;20307;-65
2023/07/02 05:16:56;;;;;;;2.50;2.30;;;;;;;;;;5058720;28;20236;-65
2023/07/02 05:19:24;;;;;;;2.63;2.42;;;;;;;;;;5058849;28;20482;-65
2023/07/02 05:21:52;;;;;;;2.63;2.42;;;;;;;;;;5058771;28;20823;-65
2023/07/02 05:24:20;;;;;;;2.50;2.30;;;;;;;;;;5058413;28;20291;-65
2023/07/02 05:26:47;;;;;;;2.72;2.53;;;;;;;;;;5058594;28;20216;-65
2023/07/02 05:29:15;;;;;;;2.63;2.40;;;;;;;;;;5058476;28;20232;-65
2023/07/02 05:31:42;;;;;;;2.42;2.33;;;;;;;;;;5058271;28;20672;-66
2023/07/02 05:34:10;;;;;;;2.78;2.50;;;;;;;;;;5058226;28;20204;-65
2023/07/02 05:36:37;;;;;;;2.40;2.30;;;;;;;;;;5058257;28;20288;-65
2023/07/02 05:39:06;;;;;;;2.67;2.47;;;;;;;;;;5071510;28;20276;-65
2023/07/02 05:41:34;;;;;;;2.50;2.33;;;;;;;;;;5078299;28;20204;-65
2023/07/02 05:44:01;;;;;;;2.20;2.10;;;;;;;;;;5077822;28;20576;-65
2023/07/02 05:46:28;;;;;;;2.50;2.30;;;;;;;;;;5078219;28;20207;-65
2023/07/02 05:48:57;;;;;;;3.00;2.80;;;;;;;;;;5077768;28;20228;-65
2023/07/02 05:51:24;;;;;;;3.10;2.80;;;;;;;;;;5077803;28;20204;-65
2023/07/02 05:53:52;;;;;;;3.10;2.90;;;;;;;;;;5077921;28;20568;-65
2023/07/02 05:56:21;;;;;;;2.80;2.65;;;;;;;;;;5077528;28;20290;-65
2023/07/02 05:58:48;;;;;;;3.25;2.75;;;;;;;;;;5077958;28;20303;-65
2023/07/02 06:01:16;;;;;;;3.00;2.80;;;;;;;;;;5077717;28;20287;-65
2023/07/02 06:03:45;;;;;;;3.28;2.97;;;;;;;;;;5077951;28;20270;-65
2023/07/02 06:06:12;;;;;;;3.20;3.00;;;;;;;;;;5078035;28;20304;-65
2023/07/02 06:08:40;;;;;;;3.58;3.28;;;;;;;;;;5077562;28;20761;-65
2023/07/02 06:11:07;;;;;;;2.83;2.63;;;;;;;;;;5077936;28;20283;-66
2023/07/02 06:13:36;;;;;;;3.65;3.38;;;;;;;;;;5077366;28;20211;-65
2023/07/02 06:16:03;;;;;;;3.55;2.80;;;;;;;;;;5077157;28;20307;-65
2023/07/02 06:18:31;;;;;;;4.57;3.03;;;;;;;;;;5077512;28;20543;-65
2023/07/02 06:20:58;;;;;;;3.13;2.92;;;;;;;;;;5076901;28;20297;-65
2023/07/02 06:23:26;;;;;;;3.22;2.90;;;;;;;;;;5076908;28;20521;-65
2023/07/02 06:25:58;;;;;;;3.47;3.00;;;;;;;;;;5077001;28;20243;-65
2023/07/02 06:28:26;;;;;;;3.63;3.25;;;;;;;;;;5077082;28;20328;-65
2023/07/02 06:30:55;;;;;;;3.10;2.90;;;;;;;;;;5077258;28;20295;-65
2023/07/02 06:33:22;;;;;;;3.30;3.10;;;;;;;;;;5076873;28;20295;-65
2023/07/02 06:35:51;;;;;;;3.00;2.80;;;;;;;;;;5076948;28;20258;-66
2023/07/02 06:38:18;;;;;;;3.17;2.92;;;;;;;;;;5076609;28;20243;-65
2023/07/02 06:40:46;;;;;;;3.58;3.13;;;;;;;;;;5077081;28;20311;-65
2023/07/02 06:43:13;;;;;;;3.20;2.83;;;;;;;;;;5076719;28;20211;-65
2023/07/02 06:45:41;;;;;;;3.00;2.80;;;;;;;;;;5076777;28;20211;-65
2023/07/02 06:48:09;;;;;;;3.60;3.30;;;;;;;;;;5076687;28;20223;-65
2023/07/02 06:50:37;;;;;;;3.05;2.83;;;;;;;;;;5077297;28;20531;-65
2023/07/02 06:53:04;;;;;;;3.00;2.80;;;;;;;;;;5077219;28;20198;-65
2023/07/02 06:55:32;;;;;;;3.05;2.75;;;;;;;;;;5077012;28;20632;-65
2023/07/02 06:57:59;;;;;;;3.70;2.88;;;;;;;;;;5076935;28;20239;-65
2023/07/02 07:00:27;;;;;;;3.60;3.30;;;;;;;;;;5076963;28;20539;-65
2023/07/02 07:02:54;;;;;;;4.40;2.88;;;;;;;;;;5076040;28;20827;-65
2023/07/02 07:05:23;;;;;;;3.10;2.90;;;;;;;;;;5076529;28;20308;-65
2023/07/02 07:07:51;;;;;;;3.08;2.88;;;;;;;;;;5076928;28;20310;-65
2023/07/02 07:10:20;;;;;;;3.03;2.83;;;;;;;;;;5076672;28;20211;-65
2023/07/02 07:12:47;;;;;;;3.10;2.90;;;;;;;;;;5076689;28;20204;-65
2023/07/02 07:15:15;;;;;;;3.08;2.88;;;;;;;;;;5076611;28;20208;-65
2023/07/02 07:17:42;;;;;;;2.88;2.67;;;;;;;;;;5076571;28;20287;-65
2023/07/02 07:20:10;;;;;;;3.13;2.83;;;;;;;;;;5076882;28;20299;-65
2023/07/02 07:22:39;;;;;;;2.65;2.45;;;;;;;;;;5076310;28;20210;-65
2023/07/02 07:25:07;;;;;;;2.78;2.58;;;;;;;;;;5076633;28;20238;-65
2023/07/02 07:27:34;;;;;;;2.63;2.42;;;;;;;;;;5080506;28;20246;-65
2023/07/02 07:30:02;;;;;;;3.28;2.97;;;;;;;;;;5080613;28;20624;-65
2023/07/02 07:32:29;;;;;;;3.03;2.80;;;;;;;;;;5080800;28;20287;-65
2023/07/02 07:34:57;;;;;;;3.13;2.92;;;;;;;;;;5080537;28;20205;-65
2023/07/02 07:37:25;;;;;;;2.88;2.67;;;;;;;;;;5079855;28;20200;-65
2023/07/02 07:39:54;;;;;;;2.97;2.78;;;;;;;;;;5059997;28;20211;-65
2023/07/02 07:42:21;;;;;;;3.45;3.15;;;;;;;;;;5060541;28;20304;-65
2023/07/02 07:44:49;;;;;;;3.70;3.40;;;;;;;;;;5060356;28;20604;-65
2023/07/02 07:47:16;;;;;;;3.50;3.10;;;;;;;;;;5060333;28;20215;-65
2023/07/02 07:49:43;;;;;;;3.55;3.25;;;;;;;;;;5059711;28;20315;-65
2023/07/02 07:52:11;;;;;;;3.20;2.90;;;;;;;;;;5059703;28;20287;-65
2023/07/02 07:54:38;;;;;;;3.08;2.88;;;;;;;;;;5060066;28;20215;-65
2023/07/02 07:57:08;;;;;;;3.22;3.03;;;;;;;;;;5059861;28;20299;-65
2023/07/02 07:59:35;;;;;;;3.13;2.92;;;;;;;;;;5059962;28;20287;-65
2023/07/02 08:02:03;;;;;;;3.58;3.15;;;;;;;;;;5058895;28;20299;-65
2023/07/02 08:04:30;;;;;;;2.83;2.63;;;;;;;;;;5059559;28;20245;-65
2023/07/02 08:06:58;;;;;;;2.88;2.65;;;;;;;;;;5059758;28;20251;-65
2023/07/02 08:09:26;;;;;;;2.60;2.40;;;;;;;;;;5059223;28;20221;-65
2023/07/02 08:11:53;;;;;;;2.42;2.22;;;;;;;;;;5058821;28;20296;-65
2023/07/02 08:14:22;;;;;;;2.58;2.38;;;;;;;;;;5059726;28;20585;-65
2023/07/02 08:16:51;;;;;;;2.42;2.22;;;;;;;;;;5058521;28;20211;-65
2023/07/02 08:19:20;;;;;;;3.25;2.70;;;;;;;;;;5059062;28;20577;-65
2023/07/02 08:21:47;;;;;;;2.83;2.47;;;;;;;;;;5058923;28;20643;-65
2023/07/02 08:24:15;;;;;;;2.90;2.70;;;;;;;;;;5058815;28;20243;-65
2023/07/02 08:26:44;;;;;;;3.20;3.00;;;;;;;;;;5058622;28;20211;-65
2023/07/02 08:29:11;;;;;;;3.15;2.80;;;;;;;;;;5058554;28;20255;-65
2023/07/02 08:31:42;;;;;;;3.38;3.08;;;;;;;;;;5059084;28;20224;-65
2023/07/02 08:34:10;;;;;;;3.25;2.95;;;;;;;;;;5058872;28;20608;-65
2023/07/02 08:36:38;;;;;;;3.33;3.03;;;;;;;;;;5057972;28;20288;-65
2023/07/02 08:39:05;;;;;;;4.20;2.80;;;;;;;;;;5057613;28;20268;-65
2023/07/02 08:41:43;;;;;;;3.88;3.35;;;;;;;;;;5058626;28;20676;-65
2023/07/02 08:44:10;;;;;;;3.35;3.05;;;;;;;;;;5058348;28;20232;-65
2023/07/02 08:46:38;;;;;;;3.33;3.13;;;;;;;;;;5058391;28;20296;-65
2023/07/02 08:49:06;;;;;;;4.78;3.22;;;;;;;;;;5058509;28;20235;-65
2023/07/02 08:51:34;;;;;;;3.30;3.00;;;;;;;;;;5057911;28;20304;-65
2023/07/02 08:54:02;;;;;;;3.22;2.92;;;;;;;;;;5058382;28;20303;-65
2023/07/02 08:56:30;;;;;;;3.25;2.95;;;;;;;;;;5058562;28;20216;-65
2023/07/02 08:58:57;;;;;;;3.63;3.25;;;;;;;;;;5058304;28;20292;-65
2023/07/02 09:01:25;;;;;;;3.00;2.75;;;;;;;;;;5058461;28;20308;-65
2023/07/02 09:03:52;;;;;;;3.53;3.08;;;;;;;;;;5058173;28;20205;-65
2023/07/02 09:06:21;;;;;;;3.30;3.00;;;;;;;;;;5057946;28;20311;-66
2023/07/02 09:08:49;;;;;;;3.95;3.20;;;;;;;;;;5057726;28;20620;-65
2023/07/02 09:11:17;;;;;;;3.30;3.00;;;;;;;;;;5058145;28;20235;-65
2023/07/02 09:13:48;;;;;;;6.13;3.10;;;;;;;;;;5058228;28;20205;-65
2023/07/02 09:16:26;;;;;;;3.33;3.03;;;;;;;;;;5057967;28;20215;-65
2023/07/02 09:18:59;;;;;;;3.40;2.92;;;;;;;;;;5057940;28;20220;-65
2023/07/02 09:21:29;;;;;;;3.22;2.90;;;;;;;;;;5057392;28;20905;-65
2023/07/02 09:23:56;;;;;;;2.95;2.75;;;;;;;;;;5057637;28;20219;-65
2023/07/02 09:26:25;;;;;;;3.40;3.10;;;;;;;;;;5057325;28;20211;-65
2023/07/02 09:28:52;;;;;;;3.22;2.70;;;;;;;;;;5057691;28;20290;-65
2023/07/02 09:31:19;;;;;;;2.92;2.70;;;;;;;;;;5056949;28;20680;-65
2023/07/02 09:33:47;;;;;;;3.20;2.90;;;;;;;;;;5056905;28;20227;-65
2023/07/02 09:36:14;;;;;;;3.88;3.10;;;;;;;;;;5056957;28;20201;-65
2023/07/02 09:38:43;;;;;;;4.10;3.10;;;;;;;;;;5056727;28;20633;-65
2023/07/02 09:41:11;;;;;;;2.95;2.70;;;;;;;;;;5057041;28;20537;-65
2023/07/02 09:43:38;;;;;;;3.15;2.85;;;;;;;;;;5057197;28;20240;-65
2023/07/02 09:46:08;;;;;;;3.55;3.10;;;;;;;;;;5057344;28;20200;-65
2023/07/02 09:48:36;;;;;;;4.18;3.10;;;;;;;;;;5056656;28;20224;-65
2023/07/02 09:51:05;;;;;;;3.30;3.00;;;;;;;;;;5057111;28;20231;-65
2023/07/02 09:53:32;;;;;;;3.15;2.85;;;;;;;;;;5056478;28;20209;-65
2023/07/02 09:56:01;;;;;;;3.70;3.00;;;;;;;;;;5056415;28;20231;-65
2023/07/02 09:58:31;;;;;;;3.38;3.08;;;;;;;;;;5056561;28;20207;-65
2023/07/02 10:00:59;;;;;;;3.45;3.20;;;;;;;;;;5057042;28;20290;-65
2023/07/02 10:03:32;;;;;;;3.30;3.00;;;;;;;;;;5057192;28;20209;-65
2023/07/02 10:06:07;;;;;;;3.35;3.08;;;;;;;;;;5056685;28;20589;-65
2023/07/02 10:08:34;;;;;;;3.10;2.90;;;;;;;;;;5056643;28;20298;-65
2023/07/02 10:11:10;;;;;;;4.05;2.97;;;;;;;;;;5056358;28;20725;-65
2023/07/02 10:13:38;;;;;;;3.15;2.95;;;;;;;;;;5057026;28;20201;-65
2023/07/02 10:16:06;;;;;;;3.55;3.25;;;;;;;;;;5056515;28;20204;-65
2023/07/02 10:18:34;;;;;;;3.38;3.08;;;;;;;;;;5055612;28;20259;-65
2023/07/02 10:21:01;;;;;;;3.33;3.03;;;;;;;;;;5056058;28;20300;-65
2023/07/02 10:23:36;;;;;;;3.45;3.15;;;;;;;;;;5056901;28;20235;-65
2023/07/02 10:26:16;;;;;;;3.42;3.05;;;;;;;;;;5055832;28;20291;-65
2023/07/02 10:28:45;;;;;;;3.45;2.83;;;;;;;;;;5056374;28;20216;-65
2023/07/02 10:31:19;;;;;;;4.07;3.08;;;;;;;;;;5055874;28;20236;-65
2023/07/02 10:33:48;;;;;;;3.15;2.85;;;;;;;;;;5055942;28;20549;-65
2023/07/02 10:36:22;;;;;;;4.40;3.30;;;;;;;;;;5055650;28;20205;-65
2023/07/02 10:38:51;;;;;;;3.55;3.10;;;;;;;;;;5054834;28;20670;-65
2023/07/02 10:41:25;;;;;;;3.92;2.80;;;;;;;;;;5055599;28;20300;-65
2023/07/02 10:43:54;;;;;;;3.47;3.17;;;;;;;;;;5055595;28;20224;-64
2023/07/02 10:46:22;;;;;;;3.25;2.88;;;;;;;;;;5056461;28;20296;-65
2023/07/02 10:48:53;;;;;;;3.05;2.80;;;;;;;;;;5056123;28;20304;-65
2023/07/02 10:51:21;;;;;;;4.90;3.10;;;;;;;;;;5055724;28;20205;-65
2023/07/02 10:53:58;;;;;;;4.43;2.85;;;;;;;;;;5055668;28;20209;-65
2023/07/02 10:56:26;;;;;;;3.45;3.15;;;;;;;;;;5056261;28;20205;-65
2023/07/02 10:58:55;;;;;;;3.08;2.78;;;;;;;;;;5055470;28;20625;-65
2023/07/02 11:01:26;;;;;;;3.50;3.15;;;;;;;;;;5055286;28;20299;-65
2023/07/02 11:04:00;;;;;;;3.72;3.05;;;;;;;;;;5056036;28;20205;-65
2023/07/02 11:06:28;;;;;;;3.83;3.00;;;;;;;;;;5055950;28;20680;-65
2023/07/02 11:08:56;;;;;;;3.25;2.88;;;;;;;;;;5055993;28;20205;-65
2023/07/02 11:11:24;;;;;;;4.57;2.95;;;;;;;;;;5055961;28;20292;-65
2023/07/02 11:13:52;;;;;;;3.25;2.95;;;;;;;;;;5055229;28;20214;-65
2023/07/02 11:16:25;;;;;;;4.90;3.38;;;;;;;;;;5055846;28;20196;-65
2023/07/02 11:18:56;;;;;;;3.50;3.20;;;;;;;;;;5055621;28;20224;-65
2023/07/02 11:21:23;;;;;;;3.40;3.10;;;;;;;;;;5056093;28;20467;-65
2023/07/02 11:23:51;;;;;;;3.72;3.00;;;;;;;;;;5055466;28;20599;-65
2023/07/02 11:26:18;;;;;;;3.78;2.90;;;;;;;;;;5055756;28;20243;-65
2023/07/02 11:28:52;;;;;;;3.80;3.03;;;;;;;;;;5055548;28;20678;-65
2023/07/02 11:31:33;;;;;;;3.75;3.45;;;;;;;;;;5055530;28;20676;-65
2023/07/02 11:34:01;;;;;;;3.65;3.28;;;;;;;;;;5055679;28;20208;-65
2023/07/02 11:36:28;;;;;;;3.40;3.10;;;;;;;;;;5055823;28;20616;-65
2023/07/02 11:38:57;;;;;;;3.40;3.10;;;;;;;;;;5054669;28;20232;-65
2023/07/02 11:41:24;;;;;;;3.55;3.25;;;;;;;;;;5055279;28;20209;-65
2023/07/02 11:43:51;;;;;;;4.00;3.35;;;;;;;;;;5054572;28;20266;-65
2023/07/02 11:46:19;;;;;;;3.55;3.25;;;;;;;;;;5055383;28;20215;-65
2023/07/02 11:48:48;;;;;;;3.53;2.92;;;;;;;;;;5055054;28;20215;-65
2023/07/02 11:51:15;;;;;;;3.80;3.42;;;;;;;;;;5054747;28;20594;-65
2023/07/02 11:53:43;;;;;;;3.50;3.20;;;;;;;;;;5055147;28;20547;-65
2023/07/02 11:56:12;;;;;;;3.85;2.80;;;;;;;;;;5055053;28;20240;-65
2023/07/02 11:58:40;;;;;;;3.88;3.17;;;;;;;;;;5054903;28;20212;-65
2023/07/02 12:01:07;;;;;;;3.78;3.47;;;;;;;;;;5054744;28;20200;-65
2023/07/02 12:03:35;;;;;;;3.30;3.00;;;;;;;;;;5054265;28;20588;-65
2023/07/02 12:06:03;;;;;;;3.85;3.05;;;;;;;;;;5054873;28;20288;-65
2023/07/02 12:08:31;;;;;;;3.20;3.00;;;;;;;;;;5054401;28;20231;-65
2023/07/02 12:10:58;;;;;;;3.05;2.75;;;;;;;;;;5054256;28;20323;-65
2023/07/02 12:13:26;;;;;;;4.50;3.10;;;;;;;;;;5057185;28;20630;-65
2023/07/02 12:15:53;;;;;;;3.55;2.75;;;;;;;;;;5059095;28;20300;-65
2023/07/02 12:18:21;;;;;;;4.25;3.08;;;;;;;;;;5058664;28;20197;-65
2023/07/02 12:20:48;;;;;;;4.15;3.10;;;;;;;;;;5058135;28;20197;-65
2023/07/02 12:23:18;;;;;;;2.70;2.50;;;;;;;;;;5058176;28;20300;-65
2023/07/02 12:25:45;;;;;;;2.97;2.72;;;;;;;;;;5058756;28;20556;-65
2023/07/02 12:28:12;;;;;;;4.85;3.28;;;;;;;;;;5057559;28;20288;-65
2023/07/02 12:30:40;;;;;;;3.45;2.80;;;;;;;;;;5058684;28;20221;-65
2023/07/02 12:33:07;;;;;;;4.10;3.15;;;;;;;;;;5057745;28;20244;-65
2023/07/02 12:35:34;;;;;;;3.65;3.05;;;;;;;;;;5058145;28;20288;-65
2023/07/02 12:38:03;;;;;;;3.95;3.42;;;;;;;;;;5057322;28;20232;-65
2023/07/02 12:40:32;;;;;;;3.85;3.13;;;;;;;;;;5057016;28;20201;-65
2023/07/02 12:42:59;;;;;;;3.60;3.30;;;;;;;;;;5057572;28;20635;-65
2023/07/02 12:45:27;;;;;;;4.07;3.47;;;;;;;;;;5057976;28;20271;-65
2023/07/02 12:47:54;;;;;;;3.88;3.17;;;;;;;;;;5058277;28;20205;-65
2023/07/02 12:50:22;;;;;;;3.80;3.50;;;;;;;;;;5057484;28;20311;-65
2023/07/02 12:52:49;;;;;;;3.80;3.50;;;;;;;;;;5057432;28;20255;-65
2023/07/02 12:55:16;;;;;;;5.72;3.58;;;;;;;;;;5057899;28;20270;-65
2023/07/02 12:57:46;;;;;;;4.22;3.60;;;;;;;;;;5057119;28;20304;-65
2023/07/02 13:00:13;;;;;;;4.00;3.55;;;;;;;;;;5057022;28;20205;-65
2023/07/02 13:02:41;;;;;;;4.22;3.40;;;;;;;;;;5057235;28;20474;-65
2023/07/02 13:05:09;;;;;;;3.60;3.30;;;;;;;;;;5056042;28;20204;-65
2023/07/02 13:07:36;;;;;;;3.80;3.50;;;;;;;;;;5057032;28;20224;-65
2023/07/02 13:10:03;;;;;;;4.43;3.45;;;;;;;;;;5056311;28;20221;-65
2023/07/02 13:12:31;;;;;;;3.97;3.55;;;;;;;;;;5056335;28;20205;-65
2023/07/02 13:15:00;;;;;;;3.85;3.45;;;;;;;;;;5057202;28;20201;-65
2023/07/02 13:17:27;;;;;;;3.90;3.53;;;;;;;;;;5058174;28;20292;-65
2023/07/02 13:19:56;;;;;;;3.70;3.33;;;;;;;;;;5056779;28;20235;-65
2023/07/02 13:22:23;;;;;;;3.83;3.53;;;;;;;;;;5056825;28;20243;-65
2023/07/02 13:24:51;;;;;;;3.60;3.30;;;;;;;;;;5057204;28;20577;-65
2023/07/02 13:27:19;;;;;;;3.55;3.22;;;;;;;;;;5056784;28;20270;-65
2023/07/02 13:29:47;;;;;;;4.28;3.70;;;;;;;;;;5056513;28;20229;-65
2023/07/02 13:32:16;;;;;;;3.90;3.60;;;;;;;;;;5056966;28;20263;-65
2023/07/02 13:34:43;;;;;;;5.13;3.92;;;;;;;;;;5057180;28;20235;-65
2023/07/02 13:37:11;;;;;;;4.72;4.10;;;;;;;;;;5057296;28;20498;-65
2023/07/02 13:39:38;;;;;;;4.68;3.80;;;;;;;;;;5057090;28;20313;-65
2023/07/02 13:42:06;;;;;;;4.47;3.95;;;;;;;;;;5056790;28;20295;-65
2023/07/02 13:44:33;;;;;;;4.70;4.30;;;;;;;;;;5057099;28;20209;-65
2023/07/02 13:47:01;;;;;;;4.85;4.35;;;;;;;;;;5056517;28;20656;-65
2023/07/02 13:49:30;;;;;;;5.10;4.20;;;;;;;;;;5056358;28;20211;-65
2023/07/02 13:51:57;;;;;;;5.00;4.50;;;;;;;;;;5056681;28;20233;-65
2023/07/02 13:54:25;;;;;;;4.97;4.40;;;;;;;;;;5055907;28;20215;-65
2023/07/02 13:56:52;;;;;;;4.80;4.40;;;;;;;;;;5055670;28;20659;-65
2023/07/02 13:59:22;;;;;;;4.60;4.20;;;;;;;;;;5055993;28;20205;-65
2023/07/02 14:01:49;;;;;;;5.20;4.70;;;;;;;;;;5055892;28;20201;-65
2023/07/02 14:04:18;;;;;;;5.40;4.57;;;;;;;;;;5056103;28;20716;-65
2023/07/02 14:06:45;;;;;;;5.03;4.53;;;;;;;;;;5056529;28;20720;-65
2023/07/02 14:09:13;;;;;;;5.78;4.70;;;;;;;;;;5056355;28;20211;-65
2023/07/02 14:11:41;;;;;;;5.10;4.60;;;;;;;;;;5056767;28;20234;-65
2023/07/02 14:14:08;;;;;;;5.97;5.00;;;;;;;;;;5055472;28;20215;-65
2023/07/02 14:16:38;;;;;;;4.55;4.15;;;;;;;;;;5055680;28;20668;-65
2023/07/02 14:19:05;;;;;;;4.70;4.30;;;;;;;;;;5055055;28;20303;-65
2023/07/02 14:21:32;;;;;;;8.75;4.78;;;;;;;;;;5055471;28;20854;-65
2023/07/02 14:24:00;;;;;;;5.60;5.00;;;;;;;;;;5055580;28;20291;-65
2023/07/02 14:26:28;;;;;;;5.20;4.70;;;;;;;;;;5055204;28;20207;-65
2023/07/02 14:28:55;;;;;;;5.90;4.65;;;;;;;;;;5056195;28;20197;-65
2023/07/02 14:31:22;;;;;;;5.88;4.63;;;;;;;;;;5055411;28;20228;-65
2023/07/02 14:33:51;;;;;;;5.95;5.10;;;;;;;;;;5055994;28;20209;-65
2023/07/02 14:36:19;;;;;;;6.10;5.25;;;;;;;;;;5055260;28;20211;-65
2023/07/02 14:38:46;;;;;;;5.95;4.82;;;;;;;;;;5055957;28;20670;-65
2023/07/02 14:41:14;;;;;;;6.68;4.97;;;;;;;;;;5055973;28;20197;-65
2023/07/02 14:43:41;;;;;;;5.55;5.05;;;;;;;;;;5055183;28;20203;-65
2023/07/02 14:46:09;;;;;;;5.72;4.95;;;;;;;;;;5055408;28;20239;-65
2023/07/02 14:48:36;;;;;;;5.72;5.20;;;;;;;;;;5055613;28;20227;-65